Monday, July 28, 2014
08:22 UTC
  |  Log In   |  Register Free
Airport Search:

Hampton Roads Executive Airport
(KPVG)

Hampton Roads Executive Airport Diagram
No Airport Diagram Available

FAA data valid effective July 24, 2014 until September 18, 2014 (unless otherwise noted).

 
 
 
 
 
 
 
 
 
 
 
 
 
 

Current Aviation Weather for Hampton Roads Executive Airport (KPVG)

The most recent METAR observation for KPVG was updated at: 0755 UTC
METAR Summary (Translated METAR)
KPVG
280755Z AUTO 23008KT 10SM CLR 26/22 A2968 RMK AO1
KCPK
(9.2 nm SE from KPVG)
280735Z AUTO 21004KT 7SM CLR 25/23 A2968 RMK AO2
TAF
No TAF information found within 50 nm of KPVG
  Airport Weather Conditions for KPVG

 Current Weather at PVG
79° F
Fair
Southwest winds at 9.2 mph
PVG NOAA Radar

Pressure: 29.68 in
Humidity: 79%
Wind: Southwest at 9.2 MPH (8 KT)
Dew Point: 71.6°F
Visibility: 10.00 mi


Airport Weather Forecast for KPVG

Translated METAR and TAF for KPVG
Translated METAR for KPVG (0815 UTC 28 July 2014)
found at http://aviationweather.gov/adds/metars/
 
METAR text: KPVG 280755Z AUTO 23008KT 10SM CLR 26/22 A2968 RMK AO1
Conditions at: KPVG (NORFOLK/HAMPTON , VA, US) observed 0755 UTC 28 July 2014
Temperature: 26.0°C (79°F)
Dewpoint: 22.0°C (72°F) [RH = 79%]
Pressure (altimeter): 29.68 inches Hg (1005.2 mb)
Winds: from the SW (230 degrees) at 9 MPH (8 knots; 4.2 m/s)
Visibility: 10 or more miles (16+ km)
Ceiling: at least 12,000 feet AGL
Clouds: sky clear below 12,000 feet AGL
Weather: automated observation with no human augmentation;
there may or may not be significant weather present at this time
Translated TAF for KPVG

There is no translated TAF available for this airport

Find All Airport Services Find A Hotel Find A Rental Car Find A Golf Course Find A Restaurant $100 Hamburger



FBO's on the Field
FBO Company Facility Photos Services Transportation Aviation Fuel Prices: Prices include tax
Catering Weather Repair Courtesy Rental Type 100LL JetA JetA+ MOGAS 8087
 
Hampton Roads Executive Airport

This FBO has not yet been rated
FS:Shell
Last Updated: Jul-21
Login to update fuel prices
SS:
Contact Hampton Roads Executive AirportMore FBO Information
 
Add another FBO Facility Photos Catering Weather Repair Courtesy Rental Type 100LL JetA JetA+ MOGAS 8087
Services Transportation Aviation Fuel Prices: Prices include tax


GlobalAir.com Airport Resource Center model-print
model-print
model-print
model-print